Time;durP1;ratioP1;P1;durP2;ratioP2;P2;SDS_P1;SDS_P2;PMS_P1;PMS_P2;Temp;Humidity;BMP_temperature;BMP_pressure;BME280_temperature;BME280_humidity;BME280_pressure;Samples;Min_cycle;Max_cycle;Signal;HPM_P1;HPM_P2
2022/01/15 00:01:15;;;;;;;46.83;12.63;;;;;;;;;;5064863;28;20244;-81
2022/01/15 00:03:42;;;;;;;52.60;12.70;;;;;;;;;;5062646;28;20237;-80
2022/01/15 00:06:09;;;;;;;32.93;12.03;;;;;;;;;;5063462;28;20206;-82
2022/01/15 00:08:36;;;;;;;32.50;11.57;;;;;;;;;;5064112;28;20714;-82
2022/01/15 00:11:04;;;;;;;27.70;10.57;;;;;;;;;;5063656;28;20225;-81
2022/01/15 00:13:31;;;;;;;40.90;12.13;;;;;;;;;;5063446;28;20249;-81
2022/01/15 00:16:06;;;;;;;43.67;12.53;;;;;;;;;;5060550;28;20205;-80
2022/01/15 00:18:43;;;;;;;41.70;13.23;;;;;;;;;;5061553;28;20261;-81
2022/01/15 00:21:10;;;;;;;43.47;12.00;;;;;;;;;;5059672;28;20229;-81
2022/01/15 00:23:38;;;;;;;34.77;12.63;;;;;;;;;;5060344;28;20279;-81
2022/01/15 00:26:06;;;;;;;28.17;11.73;;;;;;;;;;5058982;28;20214;-81
2022/01/15 00:28:33;;;;;;;40.07;12.13;;;;;;;;;;5059508;28;20241;-81
2022/01/15 00:31:00;;;;;;;31.30;11.20;;;;;;;;;;5060905;28;20225;-82
2022/01/15 00:33:30;;;;;;;45.37;11.93;;;;;;;;;;5065701;28;20237;-81
2022/01/15 00:35:57;;;;;;;77.90;12.77;;;;;;;;;;5065202;28;20229;-82
2022/01/15 00:38:24;;;;;;;40.87;11.00;;;;;;;;;;5065656;28;20246;-82
2022/01/15 00:40:51;;;;;;;60.90;11.50;;;;;;;;;;5068699;28;20226;-82
2022/01/15 00:43:19;;;;;;;43.63;11.60;;;;;;;;;;5071823;28;20245;-81
2022/01/15 00:45:46;;;;;;;32.70;11.67;;;;;;;;;;5070844;28;20210;-82
2022/01/15 00:48:13;;;;;;;35.20;10.63;;;;;;;;;;5071489;28;20248;-81
2022/01/15 00:50:40;;;;;;;47.93;9.53;;;;;;;;;;5072016;28;20229;-81
2022/01/15 00:53:07;;;;;;;36.20;10.43;;;;;;;;;;5071564;28;20230;-81
2022/01/15 00:55:34;;;;;;;38.73;10.33;;;;;;;;;;5070874;28;20222;-81
2022/01/15 00:58:01;;;;;;;34.73;10.30;;;;;;;;;;5070678;28;20706;-81
2022/01/15 01:00:30;;;;;;;45.13;11.33;;;;;;;;;;5069500;28;20248;-81
2022/01/15 01:02:57;;;;;;;34.47;10.63;;;;;;;;;;5069615;28;20405;-82
2022/01/15 01:05:24;;;;;;;33.93;11.97;;;;;;;;;;5071379;28;20267;-82
2022/01/15 01:07:51;;;;;;;26.80;10.57;;;;;;;;;;5071304;28;20237;-82
2022/01/15 01:13:27;;;;;;;32.83;10.83;;;;;;;;;;5069942;28;20229;-82
2022/01/15 01:22:03;;;;;;;31.17;10.67;;;;;;;;;;5071927;28;20244;-82
2022/01/15 01:24:21;;;;;;;22.77;10.43;;;;;;;;;;5073823;28;20245;-82
2022/01/15 01:26:54;;;;;;;29.07;10.77;;;;;;;;;;5075485;28;20205;-81
2022/01/15 01:29:30;;;;;;;25.80;10.27;;;;;;;;;;5074058;28;20248;-80
2022/01/15 01:32:03;;;;;;;25.43;10.37;;;;;;;;;;5071803;28;20212;-82
2022/01/15 01:34:34;;;;;;;29.60;12.03;;;;;;;;;;5073962;28;20226;-81
2022/01/15 01:37:12;;;;;;;35.23;12.30;;;;;;;;;;5074545;28;20257;-80
2022/01/15 01:39:45;;;;;;;29.23;11.73;;;;;;;;;;5074607;28;20297;-80
2022/01/15 01:42:30;;;;;;;29.23;12.50;;;;;;;;;;5073400;28;20216;-82
2022/01/15 01:45:01;;;;;;;28.50;12.00;;;;;;;;;;5074146;28;20277;-82
2022/01/15 01:47:39;;;;;;;26.80;11.83;;;;;;;;;;5075391;28;20257;-82
2022/01/15 01:50:07;;;;;;;27.63;13.00;;;;;;;;;;5075766;28;20221;-82
2022/01/15 01:52:34;;;;;;;34.83;13.10;;;;;;;;;;5075064;28;20237;-81
2022/01/15 01:55:01;;;;;;;33.73;12.73;;;;;;;;;;5073906;28;20186;-82
2022/01/15 01:57:28;;;;;;;32.37;13.63;;;;;;;;;;5074770;28;20246;-82
2022/01/15 01:59:55;;;;;;;33.03;13.80;;;;;;;;;;5074532;28;20237;-82
2022/01/15 02:02:22;;;;;;;30.03;14.50;;;;;;;;;;5067798;28;20203;-82
2022/01/15 02:04:50;;;;;;;31.40;13.27;;;;;;;;;;5061237;28;20225;-80
2022/01/15 02:07:17;;;;;;;34.03;14.40;;;;;;;;;;5075251;28;20190;-81
2022/01/15 02:09:44;;;;;;;27.53;12.63;;;;;;;;;;5064985;28;20309;-81
2022/01/15 02:12:11;;;;;;;31.67;13.97;;;;;;;;;;5069011;28;20209;-82
2022/01/15 02:14:38;;;;;;;36.00;14.67;;;;;;;;;;5076534;28;20206;-82
2022/01/15 02:17:05;;;;;;;35.17;13.97;;;;;;;;;;5076102;28;20206;-81
2022/01/15 02:19:44;;;;;;;31.37;14.50;;;;;;;;;;5075996;28;20209;-82
2022/01/15 02:24:56;;;;;;;36.13;14.00;;;;;;;;;;5055673;28;20275;-80
2022/01/15 02:27:23;;;;;;;29.30;13.90;;;;;;;;;;5068729;28;20205;-81
2022/01/15 02:29:50;;;;;;;34.70;14.80;;;;;;;;;;5076039;28;20237;-82
2022/01/15 02:32:17;;;;;;;36.97;14.30;;;;;;;;;;5073246;28;20206;-82
2022/01/15 02:34:45;;;;;;;39.20;15.63;;;;;;;;;;5075567;28;20207;-81
2022/01/15 02:37:12;;;;;;;41.27;15.33;;;;;;;;;;5073831;28;20209;-80
2022/01/15 02:39:39;;;;;;;31.33;14.97;;;;;;;;;;5073019;28;20222;-82
2022/01/15 02:42:06;;;;;;;42.87;14.90;;;;;;;;;;5072787;28;20709;-81
2022/01/15 02:44:38;;;;;;;32.33;15.10;;;;;;;;;;5074427;28;20221;-83
2022/01/15 02:49:51;;;;;;;44.50;15.83;;;;;;;;;;5071555;28;20224;-82
2022/01/15 02:52:18;;;;;;;35.30;14.63;;;;;;;;;;5071082;28;20186;-81
2022/01/15 02:54:45;;;;;;;38.77;13.37;;;;;;;;;;5071432;28;20220;-82
2022/01/15 02:57:13;;;;;;;40.80;14.03;;;;;;;;;;5069625;28;20202;-82
2022/01/15 02:59:40;;;;;;;43.07;17.00;;;;;;;;;;5067948;28;20230;-82
2022/01/15 03:02:08;;;;;;;43.60;15.30;;;;;;;;;;5066140;28;20195;-81
2022/01/15 03:04:35;;;;;;;39.53;15.73;;;;;;;;;;5060962;28;20267;-80
2022/01/15 03:07:05;;;;;;;37.70;14.53;;;;;;;;;;5064183;28;20493;-82
2022/01/15 03:09:32;;;;;;;32.77;14.67;;;;;;;;;;5064686;28;20226;-81
2022/01/15 03:12:02;;;;;;;35.90;15.37;;;;;;;;;;5062426;28;20216;-81
2022/01/15 03:14:31;;;;;;;34.90;13.70;;;;;;;;;;5062425;28;20238;-80
2022/01/15 03:16:58;;;;;;;31.53;15.23;;;;;;;;;;5060113;28;20293;-81
2022/01/15 03:19:25;;;;;;;38.93;14.83;;;;;;;;;;5061542;28;20275;-80
2022/01/15 03:21:52;;;;;;;41.87;15.27;;;;;;;;;;5063448;28;20571;-82
2022/01/15 03:24:21;;;;;;;49.30;15.17;;;;;;;;;;5063899;28;20276;-82
2022/01/15 03:26:48;;;;;;;27.70;14.17;;;;;;;;;;5061849;28;20206;-81
2022/01/15 03:29:15;;;;;;;36.17;13.83;;;;;;;;;;5063613;28;20729;-81
2022/01/15 03:31:42;;;;;;;30.77;13.73;;;;;;;;;;5061698;28;20214;-81
2022/01/15 03:34:09;;;;;;;30.07;12.20;;;;;;;;;;5063298;28;20240;-81
2022/01/15 03:36:36;;;;;;;31.90;13.30;;;;;;;;;;5063542;28;20233;-82
2022/01/15 03:39:03;;;;;;;25.23;11.83;;;;;;;;;;5062123;28;20240;-81
2022/01/15 03:41:31;;;;;;;32.53;13.20;;;;;;;;;;5062667;28;20226;-82
2022/01/15 03:43:58;;;;;;;27.77;11.40;;;;;;;;;;5061640;28;20229;-81
2022/01/15 03:46:26;;;;;;;33.63;12.80;;;;;;;;;;5062974;28;20210;-81
2022/01/15 03:48:53;;;;;;;27.03;12.33;;;;;;;;;;5061948;28;20233;-82
2022/01/15 03:51:20;;;;;;;35.93;13.20;;;;;;;;;;5062783;28;20233;-80
2022/01/15 03:53:47;;;;;;;21.40;12.10;;;;;;;;;;5062146;28;20241;-81
2022/01/15 03:56:14;;;;;;;27.80;13.30;;;;;;;;;;5061942;28;20206;-80
2022/01/15 03:58:43;;;;;;;38.50;12.53;;;;;;;;;;5057762;28;20230;-81
2022/01/15 04:01:10;;;;;;;27.37;11.47;;;;;;;;;;5062183;28;20253;-81
2022/01/15 04:03:37;;;;;;;33.20;13.03;;;;;;;;;;5060953;28;20244;-80
2022/01/15 04:06:04;;;;;;;30.63;13.20;;;;;;;;;;5060827;28;20216;-81
2022/01/15 04:08:31;;;;;;;32.17;12.23;;;;;;;;;;5061403;28;20608;-80
2022/01/15 04:10:58;;;;;;;32.93;13.37;;;;;;;;;;5062080;28;20608;-82
2022/01/15 04:13:25;;;;;;;28.50;12.67;;;;;;;;;;5060199;28;20245;-81
2022/01/15 04:15:54;;;;;;;32.33;12.43;;;;;;;;;;5063923;28;20202;-82
2022/01/15 04:18:21;;;;;;;38.70;13.47;;;;;;;;;;5066797;28;20261;-81
2022/01/15 04:20:48;;;;;;;29.30;12.90;;;;;;;;;;5062082;28;20293;-82
2022/01/15 04:23:16;;;;;;;40.97;13.53;;;;;;;;;;5064672;28;20230;-81
2022/01/15 04:25:43;;;;;;;38.90;13.50;;;;;;;;;;5063545;28;20208;-80
2022/01/15 04:28:11;;;;;;;34.37;13.50;;;;;;;;;;5062011;28;20236;-82
2022/01/15 04:30:40;;;;;;;33.17;11.90;;;;;;;;;;5062816;28;20228;-80
2022/01/15 04:33:09;;;;;;;40.37;13.73;;;;;;;;;;5062502;28;20222;-80
2022/01/15 04:35:36;;;;;;;31.97;13.00;;;;;;;;;;5072790;28;20213;-80
2022/01/15 04:38:07;;;;;;;36.07;13.50;;;;;;;;;;5075639;28;20222;-81
2022/01/15 04:40:34;;;;;;;36.33;13.97;;;;;;;;;;5067445;28;20232;-82
2022/01/15 04:43:01;;;;;;;34.10;13.17;;;;;;;;;;5062489;28;20259;-81
2022/01/15 04:45:28;;;;;;;33.73;13.40;;;;;;;;;;5061298;28;20213;-81
2022/01/15 04:47:55;;;;;;;32.13;13.03;;;;;;;;;;5059420;28;20241;-81
2022/01/15 04:50:23;;;;;;;38.97;12.43;;;;;;;;;;5060584;28;20226;-81
2022/01/15 04:52:51;;;;;;;33.90;13.40;;;;;;;;;;5059561;28;20260;-81
2022/01/15 04:55:18;;;;;;;29.23;13.47;;;;;;;;;;5060422;28;20214;-82
2022/01/15 04:57:45;;;;;;;36.17;12.87;;;;;;;;;;5064014;28;20234;-81
2022/01/15 05:00:14;;;;;;;43.47;13.63;;;;;;;;;;5062823;28;20229;-82
2022/01/15 05:02:41;;;;;;;25.90;13.17;;;;;;;;;;5063341;28;20713;-82
2022/01/15 05:05:08;;;;;;;36.27;13.93;;;;;;;;;;5062810;28;20654;-81
2022/01/15 05:07:37;;;;;;;35.53;12.40;;;;;;;;;;5056767;28;20240;-82
2022/01/15 05:10:04;;;;;;;25.17;12.33;;;;;;;;;;5056858;28;20229;-81
2022/01/15 05:12:39;;;;;;;46.00;13.43;;;;;;;;;;5055982;28;20252;-81
2022/01/15 05:15:07;;;;;;;39.40;14.47;;;;;;;;;;5056692;28;20201;-81
2022/01/15 05:17:34;;;;;;;45.10;14.20;;;;;;;;;;5056442;28;20233;-81
2022/01/15 05:20:01;;;;;;;37.97;13.80;;;;;;;;;;5056938;28;20230;-80
2022/01/15 05:22:28;;;;;;;39.77;12.60;;;;;;;;;;5056592;28;20233;-81
2022/01/15 05:24:57;;;;;;;35.53;13.20;;;;;;;;;;5056819;28;20208;-80
2022/01/15 05:27:24;;;;;;;39.63;13.43;;;;;;;;;;5056590;28;20237;-81
2022/01/15 05:29:51;;;;;;;33.17;13.10;;;;;;;;;;5057010;28;20647;-80
2022/01/15 05:32:19;;;;;;;42.17;14.07;;;;;;;;;;5055934;28;20594;-80
2022/01/15 05:34:46;;;;;;;33.93;12.17;;;;;;;;;;5056352;28;20244;-80
2022/01/15 05:37:13;;;;;;;37.83;13.53;;;;;;;;;;5056243;28;20206;-80
2022/01/15 05:39:40;;;;;;;33.87;13.00;;;;;;;;;;5055858;28;20237;-82
2022/01/15 05:42:09;;;;;;;40.63;12.97;;;;;;;;;;5055762;28;20662;-80
2022/01/15 05:44:36;;;;;;;27.90;12.60;;;;;;;;;;5056506;28;20214;-80
2022/01/15 05:47:04;;;;;;;26.30;12.33;;;;;;;;;;5056036;28;20544;-81
2022/01/15 05:49:31;;;;;;;37.33;12.33;;;;;;;;;;5056046;28;20210;-81
2022/01/15 05:51:58;;;;;;;35.03;13.83;;;;;;;;;;5057677;28;20210;-80
2022/01/15 05:54:25;;;;;;;29.67;12.10;;;;;;;;;;5058480;28;20238;-82
2022/01/15 05:56:52;;;;;;;28.43;12.03;;;;;;;;;;5065236;28;20198;-82
2022/01/15 05:59:20;;;;;;;34.17;11.73;;;;;;;;;;5068282;28;20652;-82
2022/01/15 06:01:47;;;;;;;24.27;11.93;;;;;;;;;;5056984;28;20198;-82
2022/01/15 06:04:14;;;;;;;28.07;11.83;;;;;;;;;;5055560;28;20237;-81
2022/01/15 06:06:41;;;;;;;29.70;12.10;;;;;;;;;;5055508;28;20225;-82
2022/01/15 06:09:09;;;;;;;30.37;12.60;;;;;;;;;;5054893;28;20237;-81
2022/01/15 06:11:39;;;;;;;26.67;11.27;;;;;;;;;;5055588;28;20237;-80
2022/01/15 06:14:06;;;;;;;26.03;13.13;;;;;;;;;;5054940;28;20257;-80
2022/01/15 06:16:34;;;;;;;33.77;12.60;;;;;;;;;;5055458;28;20202;-79
2022/01/15 06:19:01;;;;;;;21.57;11.37;;;;;;;;;;5054445;28;20856;-80
2022/01/15 06:21:28;;;;;;;24.50;11.50;;;;;;;;;;5055319;28;20230;-81
2022/01/15 06:23:55;;;;;;;25.30;11.80;;;;;;;;;;5055224;28;20812;-79
2022/01/15 06:26:23;;;;;;;23.93;11.43;;;;;;;;;;5054937;28;20202;-80
2022/01/15 06:28:50;;;;;;;23.57;11.40;;;;;;;;;;5055434;28;20233;-79
2022/01/15 06:31:17;;;;;;;25.67;11.63;;;;;;;;;;5055617;28;20233;-80
2022/01/15 06:33:45;;;;;;;20.50;10.30;;;;;;;;;;5054282;28;20241;-82
2022/01/15 06:36:12;;;;;;;30.37;13.80;;;;;;;;;;5054537;28;20581;-80
2022/01/15 06:38:39;;;;;;;19.80;10.23;;;;;;;;;;5053978;28;20265;-80
2022/01/15 06:41:06;;;;;;;22.20;10.27;;;;;;;;;;5054658;28;20233;-82
2022/01/15 06:43:33;;;;;;;23.27;11.43;;;;;;;;;;5054332;28;20233;-79
2022/01/15 06:46:00;;;;;;;22.63;10.80;;;;;;;;;;5054632;28;20201;-80
2022/01/15 06:48:29;;;;;;;20.50;10.20;;;;;;;;;;5054207;28;20234;-80
2022/01/15 06:50:58;;;;;;;25.97;11.53;;;;;;;;;;5054621;28;20706;-79
2022/01/15 06:53:25;;;;;;;22.37;10.67;;;;;;;;;;5054161;28;20237;-80
2022/01/15 06:55:52;;;;;;;20.90;10.53;;;;;;;;;;5054451;28;20198;-80
2022/01/15 06:58:19;;;;;;;25.00;10.90;;;;;;;;;;5053977;28;20616;-79
2022/01/15 07:00:47;;;;;;;22.30;11.57;;;;;;;;;;5054838;28;20234;-79
2022/01/15 07:03:14;;;;;;;17.77;10.33;;;;;;;;;;5055641;28;20240;-82
2022/01/15 07:05:41;;;;;;;24.00;11.00;;;;;;;;;;5058509;28;20252;-83
2022/01/15 07:08:09;;;;;;;23.27;11.43;;;;;;;;;;5058146;28;20238;-83
2022/01/15 07:10:41;;;;;;;22.13;11.13;;;;;;;;;;5058836;28;20221;-83
2022/01/15 07:13:08;;;;;;;30.30;11.60;;;;;;;;;;5057533;28;20244;-83
2022/01/15 07:15:35;;;;;;;28.77;11.97;;;;;;;;;;5058757;28;20216;-83
2022/01/15 07:18:03;;;;;;;24.70;11.73;;;;;;;;;;5057847;28;20238;-83
2022/01/15 07:20:30;;;;;;;26.83;12.47;;;;;;;;;;5058105;28;20237;-83
2022/01/15 07:22:59;;;;;;;25.73;12.33;;;;;;;;;;5057830;28;20245;-83
2022/01/15 07:25:27;;;;;;;24.70;11.67;;;;;;;;;;5054198;28;20210;-83
2022/01/15 07:27:54;;;;;;;23.67;11.27;;;;;;;;;;5054527;28;20237;-84
2022/01/15 07:30:22;;;;;;;25.50;12.40;;;;;;;;;;5054464;28;20222;-84
2022/01/15 07:32:49;;;;;;;35.97;13.37;;;;;;;;;;5054177;28;20313;-84
2022/01/15 07:35:16;;;;;;;28.80;13.53;;;;;;;;;;5054749;28;20198;-84
2022/01/15 07:37:43;;;;;;;33.83;13.63;;;;;;;;;;5055064;28;20240;-83
2022/01/15 07:40:11;;;;;;;37.37;13.63;;;;;;;;;;5055459;28;20221;-84
2022/01/15 07:42:40;;;;;;;32.20;14.03;;;;;;;;;;5054040;28;20254;-84
2022/01/15 07:45:09;;;;;;;34.97;14.60;;;;;;;;;;5054188;28;20275;-84
2022/01/15 07:47:36;;;;;;;30.63;13.57;;;;;;;;;;5053579;28;20699;-84
2022/01/15 07:50:03;;;;;;;34.10;13.63;;;;;;;;;;5054518;28;20229;-83
2022/01/15 07:52:30;;;;;;;35.37;13.83;;;;;;;;;;5053996;28;20249;-83
2022/01/15 07:54:58;;;;;;;35.93;14.60;;;;;;;;;;5053937;28;20210;-83
2022/01/15 07:57:25;;;;;;;35.57;13.40;;;;;;;;;;5053791;28;20233;-83
2022/01/15 07:59:54;;;;;;;33.43;13.70;;;;;;;;;;5053929;28;20275;-83
2022/01/15 08:02:21;;;;;;;29.63;12.13;;;;;;;;;;5053995;28;20213;-83
2022/01/15 08:04:48;;;;;;;30.30;13.10;;;;;;;;;;5054214;28;20210;-83
2022/01/15 08:07:17;;;;;;;31.90;12.53;;;;;;;;;;5059594;28;20201;-83
2022/01/15 08:09:44;;;;;;;33.00;12.90;;;;;;;;;;5074694;28;20221;-84
2022/01/15 08:12:12;;;;;;;30.37;13.13;;;;;;;;;;5076137;28;20209;-83
2022/01/15 08:14:39;;;;;;;28.80;13.10;;;;;;;;;;5069741;28;20233;-85
2022/01/15 08:17:07;;;;;;;29.67;13.67;;;;;;;;;;5060030;28;20209;-85
2022/01/15 08:19:35;;;;;;;31.03;12.90;;;;;;;;;;5059784;28;20226;-85
2022/01/15 08:22:02;;;;;;;35.93;14.20;;;;;;;;;;5060506;28;20198;-85
2022/01/15 08:24:29;;;;;;;34.57;14.60;;;;;;;;;;5056359;28;20229;-85
2022/01/15 08:26:56;;;;;;;35.63;13.07;;;;;;;;;;5054199;28;20206;-84
2022/01/15 08:29:23;;;;;;;34.97;14.00;;;;;;;;;;5054993;28;20238;-85
2022/01/15 08:31:50;;;;;;;33.77;13.47;;;;;;;;;;5058822;28;20202;-85
2022/01/15 08:34:19;;;;;;;25.67;12.53;;;;;;;;;;5058692;28;20849;-85
2022/01/15 08:36:46;;;;;;;32.30;14.20;;;;;;;;;;5057476;28;20190;-83
2022/01/15 08:39:13;;;;;;;30.00;12.53;;;;;;;;;;5055428;28;20654;-85
2022/01/15 08:41:43;;;;;;;23.90;13.00;;;;;;;;;;5058552;28;20226;-85
2022/01/15 08:44:21;;;;;;;16.73;9.30;;;;;;;;;;5059090;28;20238;-86
2022/01/15 08:46:48;;;;;;;23.40;10.07;;;;;;;;;;5056076;28;20739;-86
2022/01/15 08:49:15;;;;;;;23.63;12.00;;;;;;;;;;5053487;28;20697;-87
2022/01/15 08:51:44;;;;;;;19.73;11.00;;;;;;;;;;5055322;28;20254;-85
2022/01/15 08:54:11;;;;;;;23.80;11.50;;;;;;;;;;5059493;28;20234;-86
2022/01/15 08:56:38;;;;;;;18.60;11.43;;;;;;;;;;5061141;28;20205;-86
2022/01/15 08:59:05;;;;;;;23.30;12.17;;;;;;;;;;5060532;28;20230;-86
2022/01/15 09:01:32;;;;;;;23.17;12.33;;;;;;;;;;5057496;28;20226;-85
2022/01/15 09:04:00;;;;;;;29.20;13.53;;;;;;;;;;5060903;28;20244;-86
2022/01/15 09:06:27;;;;;;;20.73;11.47;;;;;;;;;;5059858;28;20210;-85
2022/01/15 09:08:56;;;;;;;21.77;10.80;;;;;;;;;;5052141;28;20581;-86
2022/01/15 09:11:23;;;;;;;20.57;11.13;;;;;;;;;;5052909;28;20218;-85
2022/01/15 09:13:50;;;;;;;29.37;13.17;;;;;;;;;;5052782;28;20316;-85
2022/01/15 09:16:17;;;;;;;23.07;12.20;;;;;;;;;;5054720;28;20210;-85
2022/01/15 09:18:44;;;;;;;26.10;12.53;;;;;;;;;;5052834;28;20230;-85
2022/01/15 09:21:11;;;;;;;27.37;12.90;;;;;;;;;;5052902;28;20230;-85
2022/01/15 09:23:38;;;;;;;22.80;12.03;;;;;;;;;;5052299;28;20245;-85
2022/01/15 09:26:18;;;;;;;23.77;11.97;;;;;;;;;;5052571;28;20206;-85
2022/01/15 09:31:30;;;;;;;9.40;7.20;;;;;;;;;;5052633;28;20295;-85
2022/01/15 09:33:57;;;;;;;10.67;7.77;;;;;;;;;;5052091;28;20226;-85
2022/01/15 09:36:24;;;;;;;9.50;6.97;;;;;;;;;;5052501;28;20209;-85
2022/01/15 09:38:51;;;;;;;9.67;6.43;;;;;;;;;;5051697;28;20233;-85
2022/01/15 09:41:20;;;;;;;9.57;6.80;;;;;;;;;;5052230;28;20230;-84
2022/01/15 09:43:47;;;;;;;10.00;7.00;;;;;;;;;;5055541;28;20234;-85
2022/01/15 09:46:15;;;;;;;11.40;7.47;;;;;;;;;;5055842;28;20674;-85
2022/01/15 09:48:44;;;;;;;7.23;6.27;;;;;;;;;;5056311;28;20234;-85
2022/01/15 09:51:12;;;;;;;10.67;7.73;;;;;;;;;;5055731;28;20218;-84
2022/01/15 09:53:39;;;;;;;8.53;6.97;;;;;;;;;;5054912;28;20249;-84
2022/01/15 09:56:07;;;;;;;9.50;7.50;;;;;;;;;;5056286;28;20194;-85
2022/01/15 09:58:35;;;;;;;10.63;8.97;;;;;;;;;;5055886;28;20234;-85
2022/01/15 10:01:02;;;;;;;13.13;8.40;;;;;;;;;;5035155;28;20237;-85
2022/01/15 10:03:29;;;;;;;9.33;7.37;;;;;;;;;;5053121;28;20237;-84
2022/01/15 10:05:57;;;;;;;10.60;7.70;;;;;;;;;;5060758;28;20196;-83
2022/01/15 10:08:25;;;;;;;9.63;7.67;;;;;;;;;;5058283;28;20238;-82
2022/01/15 10:10:55;;;;;;;10.53;7.83;;;;;;;;;;5057821;28;20593;-86
2022/01/15 10:13:23;;;;;;;7.97;7.17;;;;;;;;;;5038897;28;20231;-83
2022/01/15 10:16:11;;;;;;;8.53;6.97;;;;;;;;;;5052203;28;20214;-83
2022/01/15 10:18:42;;;;;;;5.87;4.53;;;;;;;;;;5068654;28;20234;-83
2022/01/15 10:21:11;;;;;;;6.30;5.60;;;;;;;;;;5068554;28;20257;-84
2022/01/15 10:23:45;;;;;;;7.23;6.53;;;;;;;;;;5067785;28;20230;-84
2022/01/15 10:26:13;;;;;;;7.97;6.70;;;;;;;;;;5075126;28;20479;-85
2022/01/15 10:28:51;;;;;;;8.33;6.73;;;;;;;;;;5074986;28;20291;-84
2022/01/15 10:31:20;;;;;;;7.50;6.53;;;;;;;;;;5076169;28;20233;-85
2022/01/15 10:33:47;;;;;;;8.77;6.43;;;;;;;;;;5074666;28;20248;-84
2022/01/15 10:36:19;;;;;;;9.87;6.70;;;;;;;;;;5075626;28;20201;-84
2022/01/15 10:38:47;;;;;;;9.57;6.53;;;;;;;;;;5074831;28;20241;-84
2022/01/15 10:41:29;;;;;;;6.67;5.87;;;;;;;;;;5074994;28;20237;-83
2022/01/15 10:43:56;;;;;;;8.07;6.43;;;;;;;;;;5073656;28;20243;-84
2022/01/15 10:46:34;;;;;;;7.80;6.80;;;;;;;;;;5073787;28;20219;-84
2022/01/15 10:49:21;;;;;;;9.43;6.63;;;;;;;;;;5073717;28;20240;-83
2022/01/15 10:52:04;;;;;;;9.13;6.07;;;;;;;;;;5074113;28;20209;-83
2022/01/15 10:54:34;;;;;;;8.57;6.30;;;;;;;;;;5072607;28;20225;-84
2022/01/15 10:57:07;;;;;;;7.70;6.00;;;;;;;;;;5072992;28;20549;-84
2022/01/15 10:59:34;;;;;;;6.63;5.80;;;;;;;;;;5073839;28;20689;-83
2022/01/15 11:04:55;;;;;;;7.47;5.90;;;;;;;;;;5149185;27;20539;-86
2022/01/15 11:07:22;;;;;;;7.27;5.83;;;;;;;;;;5148853;28;20225;-84
2022/01/15 11:09:53;;;;;;;7.40;5.87;;;;;;;;;;5137596;28;20627;-85
2022/01/15 11:12:20;;;;;;;7.53;6.30;;;;;;;;;;5118894;28;20596;-83
2022/01/15 11:14:47;;;;;;;8.87;6.57;;;;;;;;;;5118481;28;20196;-85
2022/01/15 11:17:14;;;;;;;8.63;6.53;;;;;;;;;;5112199;28;20265;-86
2022/01/15 11:19:45;;;;;;;8.07;6.53;;;;;;;;;;5096981;28;20232;-85
2022/01/15 11:22:30;;;;;;;8.70;6.53;;;;;;;;;;5094082;28;20212;-84
2022/01/15 11:25:03;;;;;;;7.47;6.30;;;;;;;;;;5115902;28;20204;-84
2022/01/15 11:27:37;;;;;;;7.17;6.13;;;;;;;;;;5092534;28;20225;-84
2022/01/15 11:30:04;;;;;;;10.10;7.00;;;;;;;;;;5087852;28;20257;-84
2022/01/15 11:32:38;;;;;;;7.93;6.13;;;;;;;;;;5064209;28;20234;-84
2022/01/15 11:35:09;;;;;;;8.83;6.77;;;;;;;;;;5060186;28;20237;-84
2022/01/15 11:37:53;;;;;;;6.87;6.17;;;;;;;;;;5079068;28;20229;-84
2022/01/15 11:40:34;;;;;;;7.60;5.77;;;;;;;;;;5062369;28;20222;-84
2022/01/15 11:43:16;;;;;;;6.87;6.20;;;;;;;;;;5055577;28;20745;-84
2022/01/15 11:45:43;;;;;;;9.23;6.90;;;;;;;;;;5072570;28;20224;-83
2022/01/15 11:48:20;;;;;;;6.93;6.23;;;;;;;;;;5090725;28;20297;-84
2022/01/15 11:50:47;;;;;;;9.33;6.67;;;;;;;;;;5103741;28;20220;-84
2022/01/15 11:53:45;;;;;;;10.87;7.17;;;;;;;;;;5103716;28;20228;-84
2022/01/15 11:56:16;;;;;;;11.13;7.53;;;;;;;;;;5098881;28;20205;-84
2022/01/15 11:58:43;;;;;;;16.27;8.67;;;;;;;;;;5098581;28;20240;-84
2022/01/15 12:01:36;;;;;;;8.00;6.57;;;;;;;;;;5098781;28;20217;-84
2022/01/15 12:04:18;;;;;;;8.10;6.90;;;;;;;;;;5091698;28;20302;-84
2022/01/15 12:07:04;;;;;;;11.13;7.30;;;;;;;;;;5093381;28;20204;-84
2022/01/15 12:09:37;;;;;;;10.03;6.77;;;;;;;;;;5083614;28;21108;-84
2022/01/15 12:12:29;;;;;;;8.37;6.97;;;;;;;;;;5093870;28;20205;-84
2022/01/15 12:15:00;;;;;;;8.43;7.53;;;;;;;;;;5088028;28;20212;-84
2022/01/15 12:17:28;;;;;;;8.47;6.80;;;;;;;;;;5080017;28;20227;-84
2022/01/15 12:19:56;;;;;;;8.53;7.33;;;;;;;;;;5080613;28;20230;-85
2022/01/15 12:22:36;;;;;;;7.60;6.80;;;;;;;;;;5079201;28;20241;-84
2022/01/15 12:25:05;;;;;;;10.50;6.77;;;;;;;;;;5079270;28;20701;-84
2022/01/15 12:27:33;;;;;;;9.37;7.43;;;;;;;;;;5079390;28;20225;-84
2022/01/15 12:30:02;;;;;;;8.63;7.33;;;;;;;;;;5080806;28;20223;-84
2022/01/15 12:32:30;;;;;;;8.27;6.90;;;;;;;;;;5080801;28;20232;-84
2022/01/15 12:34:58;;;;;;;10.30;7.00;;;;;;;;;;5094778;28;20216;-84
2022/01/15 12:37:25;;;;;;;7.93;6.57;;;;;;;;;;5100485;28;20689;-84
2022/01/15 12:39:52;;;;;;;7.87;6.50;;;;;;;;;;5100586;28;20286;-85
2022/01/15 12:42:23;;;;;;;9.70;7.10;;;;;;;;;;5096838;28;20210;-85
2022/01/15 12:44:53;;;;;;;7.43;6.63;;;;;;;;;;5079935;28;20232;-85
2022/01/15 12:47:20;;;;;;;11.50;6.70;;;;;;;;;;5080064;28;20202;-84
2022/01/15 12:49:49;;;;;;;9.97;6.40;;;;;;;;;;5078822;28;20332;-85
2022/01/15 12:52:18;;;;;;;6.50;5.70;;;;;;;;;;5055167;28;20211;-84
2022/01/15 12:54:48;;;;;;;7.97;6.70;;;;;;;;;;5060560;28;20802;-84
2022/01/15 12:57:16;;;;;;;7.13;6.43;;;;;;;;;;5060888;28;20204;-84
2022/01/15 12:59:48;;;;;;;7.47;6.17;;;;;;;;;;5077829;28;20240;-84
2022/01/15 13:02:15;;;;;;;8.23;6.80;;;;;;;;;;5075360;28;20194;-85
2022/01/15 13:04:42;;;;;;;5.77;5.23;;;;;;;;;;5079467;28;20701;-84
2022/01/15 13:07:09;;;;;;;8.60;6.03;;;;;;;;;;5082397;28;20208;-84
2022/01/15 13:09:40;;;;;;;6.50;5.80;;;;;;;;;;5081192;28;20207;-84
2022/01/15 13:12:11;;;;;;;7.43;6.00;;;;;;;;;;5078912;28;20215;-84
2022/01/15 13:14:38;;;;;;;7.97;6.80;;;;;;;;;;5068372;28;20187;-83
2022/01/15 13:17:06;;;;;;;8.73;6.27;;;;;;;;;;5059305;28;20255;-84
2022/01/15 13:19:40;;;;;;;8.53;6.80;;;;;;;;;;5060348;28;20210;-84
2022/01/15 13:22:07;;;;;;;8.90;7.27;;;;;;;;;;5066507;28;20210;-84
2022/01/15 13:24:34;;;;;;;8.13;7.23;;;;;;;;;;5079247;28;20227;-84
2022/01/15 13:27:03;;;;;;;8.43;7.53;;;;;;;;;;5076793;28;20202;-84
2022/01/15 13:29:37;;;;;;;7.80;7.00;;;;;;;;;;5058187;28;20238;-84
2022/01/15 13:32:07;;;;;;;7.57;6.67;;;;;;;;;;5058119;28;20195;-84
2022/01/15 13:34:36;;;;;;;9.67;7.63;;;;;;;;;;5058285;28;20203;-84
2022/01/15 13:37:10;;;;;;;10.10;7.30;;;;;;;;;;5058659;28;20267;-84
2022/01/15 13:39:37;;;;;;;9.47;6.73;;;;;;;;;;5058548;28;20216;-84
2022/01/15 13:42:05;;;;;;;8.27;7.13;;;;;;;;;;5057896;28;20869;-83
2022/01/15 13:44:32;;;;;;;6.97;6.33;;;;;;;;;;5055985;28;20231;-84
2022/01/15 13:47:09;;;;;;;8.63;7.13;;;;;;;;;;5055616;28;20242;-84
2022/01/15 13:53:06;;;;;;;10.43;7.17;;;;;;;;;;5058250;28;20222;-84
2022/01/15 13:55:12;;;;;;;9.43;7.13;;;;;;;;;;5057802;28;20269;-84
2022/01/15 13:57:40;;;;;;;9.20;7.37;;;;;;;;;;5057854;28;20237;-84
2022/01/15 14:00:09;;;;;;;9.70;7.17;;;;;;;;;;5058257;28;20336;-84
2022/01/15 14:02:37;;;;;;;7.67;6.87;;;;;;;;;;5055762;28;20284;-84
2022/01/15 14:05:11;;;;;;;7.50;6.60;;;;;;;;;;5054324;28;20211;-84
2022/01/15 14:07:38;;;;;;;10.07;8.23;;;;;;;;;;5053087;28;20233;-84
2022/01/15 14:10:08;;;;;;;10.03;7.73;;;;;;;;;;5057404;28;20244;-84
2022/01/15 14:12:35;;;;;;;10.93;8.03;;;;;;;;;;5056691;28;20260;-84
2022/01/15 14:15:04;;;;;;;9.13;7.17;;;;;;;;;;5058065;28;20213;-83
2022/01/15 14:17:31;;;;;;;14.53;8.13;;;;;;;;;;5057056;28;20235;-84
2022/01/15 14:20:16;;;;;;;9.37;7.47;;;;;;;;;;5057216;28;20230;-84
2022/01/15 14:22:44;;;;;;;10.03;8.40;;;;;;;;;;5057163;28;20240;-84
2022/01/15 14:25:12;;;;;;;11.47;8.27;;;;;;;;;;5055922;28;20216;-84
2022/01/15 14:27:39;;;;;;;25.47;15.43;;;;;;;;;;5055768;28;20714;-84
2022/01/15 14:30:07;;;;;;;12.33;8.83;;;;;;;;;;5056230;28;20237;-84
2022/01/15 14:32:34;;;;;;;10.63;8.40;;;;;;;;;;5056401;28;20229;-84
2022/01/15 14:35:03;;;;;;;10.97;8.70;;;;;;;;;;5055934;28;20225;-84
2022/01/15 14:37:30;;;;;;;11.57;8.27;;;;;;;;;;5056009;28;20624;-84
2022/01/15 14:39:57;;;;;;;10.20;8.13;;;;;;;;;;5057306;28;20718;-84
2022/01/15 14:42:25;;;;;;;12.97;9.47;;;;;;;;;;5055675;28;20233;-84
2022/01/15 14:44:53;;;;;;;11.97;9.63;;;;;;;;;;5055761;28;20599;-84
2022/01/15 14:47:20;;;;;;;12.07;8.73;;;;;;;;;;5048752;28;20194;-84
2022/01/15 14:49:48;;;;;;;9.40;7.70;;;;;;;;;;5069002;28;20227;-84
2022/01/15 14:52:16;;;;;;;9.53;8.13;;;;;;;;;;5056056;28;20361;-84
2022/01/15 14:54:43;;;;;;;8.97;7.67;;;;;;;;;;5056372;28;20205;-84
2022/01/15 14:57:10;;;;;;;9.23;7.27;;;;;;;;;;5055183;28;20214;-83
2022/01/15 14:59:37;;;;;;;10.30;8.17;;;;;;;;;;5053580;28;20211;-83